sensor_id;sensor_type;location;lat;lon;timestamp;pressure;altitude;pressure_sealevel;temperature;humidity
37202;BME280;37799;52.390;6.136;2023-02-01T00:01:59;101796.88;;;5.17;100.00
37202;BME280;37799;52.390;6.136;2023-02-01T00:04:25;101801.09;;;5.13;100.00
37202;BME280;37799;52.390;6.136;2023-02-01T00:06:50;101800.53;;;5.36;100.00
37202;BME280;37799;52.390;6.136;2023-02-01T00:09:15;101790.03;;;5.20;100.00
37202;BME280;37799;52.390;6.136;2023-02-01T00:11:41;101791.72;;;5.15;100.00
37202;BME280;37799;52.390;6.136;2023-02-01T00:14:06;101796.16;;;5.28;100.00
37202;BME280;37799;52.390;6.136;2023-02-01T00:16:33;101792.69;;;5.26;100.00
37202;BME280;37799;52.390;6.136;2023-02-01T00:19:01;101790.13;;;5.25;100.00
37202;BME280;37799;52.390;6.136;2023-02-01T00:21:27;101791.09;;;5.36;100.00
37202;BME280;37799;52.390;6.136;2023-02-01T00:23:53;101785.84;;;5.25;100.00
37202;BME280;37799;52.390;6.136;2023-02-01T00:26:39;101782.53;;;5.36;100.00
37202;BME280;37799;52.390;6.136;2023-02-01T00:29:09;101780.06;;;5.46;100.00
37202;BME280;37799;52.390;6.136;2023-02-01T00:31:35;101775.75;;;5.44;100.00
37202;BME280;37799;52.390;6.136;2023-02-01T00:34:01;101781.69;;;5.38;100.00
37202;BME280;37799;52.390;6.136;2023-02-01T00:36:26;101777.41;;;5.36;100.00
37202;BME280;37799;52.390;6.136;2023-02-01T00:38:52;101771.44;;;5.41;100.00
37202;BME280;37799;52.390;6.136;2023-02-01T00:41:19;101780.03;;;5.45;100.00
37202;BME280;37799;52.390;6.136;2023-02-01T00:43:46;101774.97;;;5.48;100.00
37202;BME280;37799;52.390;6.136;2023-02-01T00:46:13;101762.91;;;5.44;100.00
37202;BME280;37799;52.390;6.136;2023-02-01T00:48:39;101780.09;;;5.48;100.00
37202;BME280;37799;52.390;6.136;2023-02-01T00:51:07;101782.72;;;5.57;100.00
37202;BME280;37799;52.390;6.136;2023-02-01T00:53:34;101798.97;;;5.53;100.00
37202;BME280;37799;52.390;6.136;2023-02-01T00:55:59;101792.97;;;5.49;100.00
37202;BME280;37799;52.390;6.136;2023-02-01T00:58:25;101788.66;;;5.48;100.00
37202;BME280;37799;52.390;6.136;2023-02-01T01:01:06;101790.41;;;5.54;100.00
37202;BME280;37799;52.390;6.136;2023-02-01T01:03:32;101785.31;;;5.58;100.00
37202;BME280;37799;52.390;6.136;2023-02-01T01:06:01;101777.56;;;5.51;100.00
37202;BME280;37799;52.390;6.136;2023-02-01T01:08:27;101762.16;;;5.54;100.00
37202;BME280;37799;52.390;6.136;2023-02-01T01:10:52;101765.50;;;5.47;100.00
37202;BME280;37799;52.390;6.136;2023-02-01T01:13:18;101763.00;;;5.53;100.00
37202;BME280;37799;52.390;6.136;2023-02-01T01:15:43;101757.03;;;5.54;100.00
37202;BME280;37799;52.390;6.136;2023-02-01T01:18:09;101756.19;;;5.58;100.00
37202;BME280;37799;52.390;6.136;2023-02-01T01:20:36;101748.47;;;5.55;100.00
37202;BME280;37799;52.390;6.136;2023-02-01T01:23:01;101735.69;;;5.62;100.00
37202;BME280;37799;52.390;6.136;2023-02-01T01:25:27;101739.91;;;5.56;100.00
37202;BME280;37799;52.390;6.136;2023-02-01T01:27:52;101746.75;;;5.55;100.00
37202;BME280;37799;52.390;6.136;2023-02-01T01:30:18;101751.88;;;5.54;100.00
37202;BME280;37799;52.390;6.136;2023-02-01T01:32:43;101742.47;;;5.53;100.00
37202;BME280;37799;52.390;6.136;2023-02-01T01:35:10;101733.94;;;5.58;100.00
37202;BME280;37799;52.390;6.136;2023-02-01T01:37:35;101729.59;;;5.48;100.00
37202;BME280;37799;52.390;6.136;2023-02-01T01:40:01;101722.75;;;5.52;100.00
37202;BME280;37799;52.390;6.136;2023-02-01T01:42:27;101731.38;;;5.58;100.00
37202;BME280;37799;52.390;6.136;2023-02-01T01:45:22;101733.06;;;5.59;100.00
37202;BME280;37799;52.390;6.136;2023-02-01T01:47:52;101731.34;;;5.54;100.00
37202;BME280;37799;52.390;6.136;2023-02-01T01:50:22;101735.63;;;5.58;100.00
37202;BME280;37799;52.390;6.136;2023-02-01T01:52:50;101728.00;;;5.62;100.00
37202;BME280;37799;52.390;6.136;2023-02-01T01:55:18;101734.75;;;5.53;100.00
37202;BME280;37799;52.390;6.136;2023-02-01T01:57:50;101727.06;;;5.54;100.00
37202;BME280;37799;52.390;6.136;2023-02-01T02:00:19;101746.75;;;5.57;100.00
37202;BME280;37799;52.390;6.136;2023-02-01T02:02:48;101734.88;;;5.70;100.00
37202;BME280;37799;52.390;6.136;2023-02-01T02:05:17;101725.47;;;5.72;100.00
37202;BME280;37799;52.390;6.136;2023-02-01T02:07:46;101719.56;;;5.83;100.00
37202;BME280;37799;52.390;6.136;2023-02-01T02:10:12;101711.00;;;5.83;100.00
37202;BME280;37799;52.390;6.136;2023-02-01T02:12:40;101707.69;;;5.91;100.00
37202;BME280;37799;52.390;6.136;2023-02-01T02:15:08;101716.19;;;5.87;100.00
37202;BME280;37799;52.390;6.136;2023-02-01T02:17:57;101712.84;;;5.95;100.00
37202;BME280;37799;52.390;6.136;2023-02-01T02:23:38;101703.50;;;6.07;100.00
37202;BME280;37799;52.390;6.136;2023-02-01T02:26:32;101701.72;;;5.96;100.00
37202;BME280;37799;52.390;6.136;2023-02-01T02:32:21;101701.88;;;6.20;100.00
37202;BME280;37799;52.390;6.136;2023-02-01T02:35:04;101691.56;;;6.18;100.00
37202;BME280;37799;52.390;6.136;2023-02-01T02:37:41;101683.94;;;6.32;100.00
37202;BME280;37799;52.390;6.136;2023-02-01T02:40:32;101688.19;;;6.26;100.00
37202;BME280;37799;52.390;6.136;2023-02-01T02:43:21;101671.84;;;6.17;100.00
37202;BME280;37799;52.390;6.136;2023-02-01T02:46:23;101677.88;;;6.19;100.00
37202;BME280;37799;52.390;6.136;2023-02-01T02:49:23;101672.78;;;6.33;100.00
37202;BME280;37799;52.390;6.136;2023-02-01T02:51:56;101672.72;;;6.22;100.00
37202;BME280;37799;52.390;6.136;2023-02-01T02:54:46;101666.78;;;6.28;100.00
37202;BME280;37799;52.390;6.136;2023-02-01T02:57:27;101656.50;;;6.31;100.00
37202;BME280;37799;52.390;6.136;2023-02-01T03:00:16;101661.63;;;6.27;100.00
37202;BME280;37799;52.390;6.136;2023-02-01T03:03:01;101659.06;;;6.25;100.00
37202;BME280;37799;52.390;6.136;2023-02-01T03:05:47;101662.44;;;6.18;100.00
37202;BME280;37799;52.390;6.136;2023-02-01T03:08:23;101654.78;;;6.33;100.00
37202;BME280;37799;52.390;6.136;2023-02-01T03:11:05;101654.72;;;6.18;100.00
37202;BME280;37799;52.390;6.136;2023-02-01T03:18:50;101643.63;;;6.33;100.00
37202;BME280;37799;52.390;6.136;2023-02-01T03:21:22;101638.47;;;6.30;100.00
37202;BME280;37799;52.390;6.136;2023-02-01T03:23:49;101629.91;;;6.26;100.00
37202;BME280;37799;52.390;6.136;2023-02-01T03:26:17;101634.19;;;6.30;100.00
37202;BME280;37799;52.390;6.136;2023-02-01T03:28:49;101640.25;;;6.43;100.00
37202;BME280;37799;52.390;6.136;2023-02-01T03:31:16;101635.97;;;6.49;100.00
37202;BME280;37799;52.390;6.136;2023-02-01T03:33:42;101645.41;;;6.43;100.00
37202;BME280;37799;52.390;6.136;2023-02-01T03:36:28;101648.88;;;6.51;100.00
37202;BME280;37799;52.390;6.136;2023-02-01T03:39:15;101660.84;;;6.40;100.00
37202;BME280;37799;52.390;6.136;2023-02-01T03:41:44;101652.31;;;6.59;100.00
37202;BME280;37799;52.390;6.136;2023-02-01T03:44:38;101649.69;;;6.48;100.00
37202;BME280;37799;52.390;6.136;2023-02-01T03:47:09;101639.44;;;6.52;100.00
37202;BME280;37799;52.390;6.136;2023-02-01T03:49:39;101653.16;;;6.54;100.00
37202;BME280;37799;52.390;6.136;2023-02-01T03:52:07;101651.44;;;6.53;100.00
37202;BME280;37799;52.390;6.136;2023-02-01T03:54:35;101658.31;;;6.57;100.00
37202;BME280;37799;52.390;6.136;2023-02-01T03:57:06;101648.88;;;6.60;100.00
37202;BME280;37799;52.390;6.136;2023-02-01T03:59:33;101657.47;;;6.59;100.00
37202;BME280;37799;52.390;6.136;2023-02-01T04:01:58;101642.00;;;6.53;100.00
37202;BME280;37799;52.390;6.136;2023-02-01T04:04:23;101639.44;;;6.62;100.00
37202;BME280;37799;52.390;6.136;2023-02-01T04:06:49;101639.47;;;6.68;100.00
37202;BME280;37799;52.390;6.136;2023-02-01T04:09:15;101635.16;;;6.61;100.00
37202;BME280;37799;52.390;6.136;2023-02-01T04:11:40;101654.94;;;6.65;100.00
37202;BME280;37799;52.390;6.136;2023-02-01T04:14:06;101656.59;;;6.56;100.00
37202;BME280;37799;52.390;6.136;2023-02-01T04:16:32;101653.19;;;6.61;100.00
37202;BME280;37799;52.390;6.136;2023-02-01T04:18:58;101651.50;;;6.72;100.00
37202;BME280;37799;52.390;6.136;2023-02-01T04:21:24;101653.22;;;6.64;100.00
37202;BME280;37799;52.390;6.136;2023-02-01T04:23:50;101661.84;;;6.86;100.00
37202;BME280;37799;52.390;6.136;2023-02-01T04:26:16;101654.94;;;6.76;100.00
37202;BME280;37799;52.390;6.136;2023-02-01T04:28:41;101651.50;;;6.71;100.00
37202;BME280;37799;52.390;6.136;2023-02-01T04:31:07;101654.03;;;6.57;100.00
37202;BME280;37799;52.390;6.136;2023-02-01T04:33:32;101659.19;;;6.60;100.00
37202;BME280;37799;52.390;6.136;2023-02-01T04:35:58;101642.91;;;6.73;100.00
37202;BME280;37799;52.390;6.136;2023-02-01T04:38:23;101648.06;;;6.67;100.00
37202;BME280;37799;52.390;6.136;2023-02-01T04:40:48;101647.16;;;6.59;100.00
37202;BME280;37799;52.390;6.136;2023-02-01T04:43:14;101639.44;;;6.64;100.00
37202;BME280;37799;52.390;6.136;2023-02-01T04:45:39;101646.34;;;6.65;100.00
37202;BME280;37799;52.390;6.136;2023-02-01T04:48:05;101637.72;;;6.60;100.00
37202;BME280;37799;52.390;6.136;2023-02-01T04:50:30;101648.06;;;6.64;100.00
37202;BME280;37799;52.390;6.136;2023-02-01T04:52:55;101642.91;;;6.66;100.00
37202;BME280;37799;52.390;6.136;2023-02-01T04:55:21;101634.34;;;6.67;100.00
37202;BME280;37799;52.390;6.136;2023-02-01T04:57:46;101635.19;;;6.67;100.00
37202;BME280;37799;52.390;6.136;2023-02-01T05:00:12;101631.75;;;6.68;100.00
37202;BME280;37799;52.390;6.136;2023-02-01T05:02:38;101630.00;;;6.61;100.00
37202;BME280;37799;52.390;6.136;2023-02-01T05:05:04;101629.16;;;6.61;100.00
37202;BME280;37799;52.390;6.136;2023-02-01T05:07:29;101636.88;;;6.52;100.00
37202;BME280;37799;52.390;6.136;2023-02-01T05:09:54;101632.63;;;6.66;100.00
37202;BME280;37799;52.390;6.136;2023-02-01T05:12:20;101616.31;;;6.68;100.00
37202;BME280;37799;52.390;6.136;2023-02-01T05:15:04;101624.03;;;6.70;100.00
37202;BME280;37799;52.390;6.136;2023-02-01T05:17:30;101623.16;;;6.54;100.00
37202;BME280;37799;52.390;6.136;2023-02-01T05:19:55;101612.84;;;6.59;100.00
37202;BME280;37799;52.390;6.136;2023-02-01T05:22:20;101627.41;;;6.50;100.00
37202;BME280;37799;52.390;6.136;2023-02-01T05:24:46;101620.56;;;6.53;100.00
37202;BME280;37799;52.390;6.136;2023-02-01T05:27:11;101614.56;;;6.55;100.00
37202;BME280;37799;52.390;6.136;2023-02-01T05:29:36;101620.53;;;6.46;100.00
37202;BME280;37799;52.390;6.136;2023-02-01T05:32:02;101632.59;;;6.57;100.00
37202;BME280;37799;52.390;6.136;2023-02-01T05:34:27;101627.44;;;6.55;100.00
37202;BME280;37799;52.390;6.136;2023-02-01T05:36:52;101627.44;;;6.61;100.00
37202;BME280;37799;52.390;6.136;2023-02-01T05:39:18;101626.59;;;6.64;100.00
37202;BME280;37799;52.390;6.136;2023-02-01T05:41:44;101619.72;;;6.58;100.00
37202;BME280;37799;52.390;6.136;2023-02-01T05:44:10;101628.28;;;6.60;100.00
37202;BME280;37799;52.390;6.136;2023-02-01T05:46:36;101617.97;;;6.46;100.00
37202;BME280;37799;52.390;6.136;2023-02-01T05:49:01;101618.00;;;6.57;100.00
37202;BME280;37799;52.390;6.136;2023-02-01T05:51:26;101611.13;;;6.52;100.00
37202;BME280;37799;52.390;6.136;2023-02-01T05:53:52;101618.84;;;6.53;100.00
37202;BME280;37799;52.390;6.136;2023-02-01T05:56:17;101635.13;;;6.46;100.00
37202;BME280;37799;52.390;6.136;2023-02-01T05:58:43;101638.53;;;6.45;100.00
37202;BME280;37799;52.390;6.136;2023-02-01T06:01:08;101633.41;;;6.48;100.00
37202;BME280;37799;52.390;6.136;2023-02-01T06:03:34;101635.16;;;6.57;100.00
37202;BME280;37799;52.390;6.136;2023-02-01T06:05:59;101639.44;;;6.53;100.00
37202;BME280;37799;52.390;6.136;2023-02-01T06:08:26;101637.72;;;6.60;100.00
37202;BME280;37799;52.390;6.136;2023-02-01T06:11:04;101633.44;;;6.62;100.00
37202;BME280;37799;52.390;6.136;2023-02-01T06:13:30;101630.88;;;6.59;100.00
37202;BME280;37799;52.390;6.136;2023-02-01T06:15:56;101624.00;;;6.59;100.00
37202;BME280;37799;52.390;6.136;2023-02-01T06:18:23;101635.97;;;6.46;100.00
37202;BME280;37799;52.390;6.136;2023-02-01T06:20:55;101630.88;;;6.56;100.00
37202;BME280;37799;52.390;6.136;2023-02-01T06:23:21;101625.72;;;6.53;100.00
37202;BME280;37799;52.390;6.136;2023-02-01T06:25:49;101636.00;;;6.56;100.00
37202;BME280;37799;52.390;6.136;2023-02-01T06:28:15;101634.25;;;6.42;100.00
37202;BME280;37799;52.390;6.136;2023-02-01T06:30:40;101631.75;;;6.65;100.00
37202;BME280;37799;52.390;6.136;2023-02-01T06:33:08;101636.88;;;6.59;100.00
37202;BME280;37799;52.390;6.136;2023-02-01T06:35:33;101636.88;;;6.59;100.00
37202;BME280;37799;52.390;6.136;2023-02-01T06:37:58;101650.59;;;6.52;100.00
37202;BME280;37799;52.390;6.136;2023-02-01T06:40:24;101661.75;;;6.56;100.00
37202;BME280;37799;52.390;6.136;2023-02-01T06:42:49;101658.31;;;6.54;100.00
37202;BME280;37799;52.390;6.136;2023-02-01T06:45:15;101660.03;;;6.62;100.00
37202;BME280;37799;52.390;6.136;2023-02-01T06:47:40;101660.91;;;6.61;100.00
37202;BME280;37799;52.390;6.136;2023-02-01T06:50:06;101658.34;;;6.67;100.00
37202;BME280;37799;52.390;6.136;2023-02-01T06:52:31;101656.63;;;6.65;100.00
37202;BME280;37799;52.390;6.136;2023-02-01T06:54:57;101649.78;;;6.70;100.00
37202;BME280;37799;52.390;6.136;2023-02-01T06:57:22;101653.22;;;6.66;100.00
37202;BME280;37799;52.390;6.136;2023-02-01T06:59:47;101652.34;;;6.67;100.00
37202;BME280;37799;52.390;6.136;2023-02-01T07:02:12;101654.94;;;6.68;100.00
37202;BME280;37799;52.390;6.136;2023-02-01T07:04:38;101661.75;;;6.62;100.00
37202;BME280;37799;52.390;6.136;2023-02-01T07:07:03;101666.03;;;6.57;100.00
37202;BME280;37799;52.390;6.136;2023-02-01T07:09:28;101669.41;;;6.48;100.00
37202;BME280;37799;52.390;6.136;2023-02-01T07:11:54;101678.84;;;6.44;100.00
37202;BME280;37799;52.390;6.136;2023-02-01T07:14:19;101679.72;;;6.45;100.00
37202;BME280;37799;52.390;6.136;2023-02-01T07:16:44;101681.53;;;6.67;100.00
37202;BME280;37799;52.390;6.136;2023-02-01T07:19:09;101673.75;;;6.58;100.00
37202;BME280;37799;52.390;6.136;2023-02-01T07:21:35;101675.47;;;6.61;100.00
37202;BME280;37799;52.390;6.136;2023-02-01T07:24:00;101671.22;;;6.70;100.00
37202;BME280;37799;52.390;6.136;2023-02-01T07:26:26;101682.38;;;6.68;100.00
37202;BME280;37799;52.390;6.136;2023-02-01T07:28:51;101678.06;;;6.64;100.00
37202;BME280;37799;52.390;6.136;2023-02-01T07:31:18;101678.03;;;6.56;100.00
37202;BME280;37799;52.390;6.136;2023-02-01T07:33:46;101685.75;;;6.58;100.00
37202;BME280;37799;52.390;6.136;2023-02-01T07:36:13;101703.03;;;6.86;100.00
37202;BME280;37799;52.390;6.136;2023-02-01T07:38:39;101674.66;;;6.65;100.00
37202;BME280;37799;52.390;6.136;2023-02-01T07:41:05;101684.06;;;6.63;100.00
37202;BME280;37799;52.390;6.136;2023-02-01T07:43:32;101685.75;;;6.55;100.00
37202;BME280;37799;52.390;6.136;2023-02-01T07:45:58;101690.00;;;6.49;100.00
37202;BME280;37799;52.390;6.136;2023-02-01T07:48:25;101672.09;;;6.65;100.00
37202;BME280;37799;52.390;6.136;2023-02-01T07:51:01;101676.31;;;6.52;100.00
37202;BME280;37799;52.390;6.136;2023-02-01T07:53:28;101673.72;;;6.50;100.00
37202;BME280;37799;52.390;6.136;2023-02-01T07:55:54;101675.41;;;6.41;100.00
37202;BME280;37799;52.390;6.136;2023-02-01T07:58:21;101684.03;;;6.54;100.00
37202;BME280;37799;52.390;6.136;2023-02-01T08:00:47;101678.84;;;6.47;100.00
37202;BME280;37799;52.390;6.136;2023-02-01T08:03:31;101681.44;;;6.46;100.00
37202;BME280;37799;52.390;6.136;2023-02-01T08:05:56;101679.75;;;6.54;100.00
37202;BME280;37799;52.390;6.136;2023-02-01T08:08:22;101683.13;;;6.41;100.00
37202;BME280;37799;52.390;6.136;2023-02-01T08:10:47;101684.91;;;6.54;100.00
37202;BME280;37799;52.390;6.136;2023-02-01T08:13:13;101686.56;;;6.41;100.00
37202;BME280;37799;52.390;6.136;2023-02-01T08:15:39;101684.00;;;6.44;100.00
37202;BME280;37799;52.390;6.136;2023-02-01T08:18:05;101686.56;;;6.50;100.00
37202;BME280;37799;52.390;6.136;2023-02-01T08:20:30;101690.06;;;6.59;100.00
37202;BME280;37799;52.390;6.136;2023-02-01T08:22:56;101697.75;;;6.53;100.00
37202;BME280;37799;52.390;6.136;2023-02-01T08:25:23;101687.50;;;6.62;100.00
37202;BME280;37799;52.390;6.136;2023-02-01T08:27:49;101702.09;;;6.64;100.00
37202;BME280;37799;52.390;6.136;2023-02-01T08:30:14;101683.28;;;6.79;100.00
37202;BME280;37799;52.390;6.136;2023-02-01T08:32:40;101674.72;;;6.97;100.00
37202;BME280;37799;52.390;6.136;2023-02-01T08:35:06;101665.31;;;7.09;100.00
37202;BME280;37799;52.390;6.136;2023-02-01T08:37:32;101673.03;;;7.14;100.00
37202;BME280;37799;52.390;6.136;2023-02-01T08:39:57;101670.50;;;7.22;100.00
37202;BME280;37799;52.390;6.136;2023-02-01T08:42:23;101658.44;;;6.90;100.00
37202;BME280;37799;52.390;6.136;2023-02-01T08:45:07;101665.28;;;6.93;100.00
37202;BME280;37799;52.390;6.136;2023-02-01T08:47:34;101668.72;;;6.99;100.00
37202;BME280;37799;52.390;6.136;2023-02-01T08:50:00;101670.47;;;7.06;100.00
37202;BME280;37799;52.390;6.136;2023-02-01T08:52:25;101658.44;;;6.93;100.00
37202;BME280;37799;52.390;6.136;2023-02-01T08:54:51;101669.63;;;7.06;100.00
37202;BME280;37799;52.390;6.136;2023-02-01T08:57:16;101673.88;;;6.95;100.00
37202;BME280;37799;52.390;6.136;2023-02-01T08:59:42;101659.28;;;6.98;100.00
37202;BME280;37799;52.390;6.136;2023-02-01T09:02:12;101648.13;;;7.02;100.00
37202;BME280;37799;52.390;6.136;2023-02-01T09:04:37;101648.16;;;7.05;100.00
37202;BME280;37799;52.390;6.136;2023-02-01T09:07:03;101648.16;;;7.12;100.00
37202;BME280;37799;52.390;6.136;2023-02-01T09:09:28;101655.00;;;6.94;100.00
37202;BME280;37799;52.390;6.136;2023-02-01T09:11:53;101646.44;;;7.10;100.00
37202;BME280;37799;52.390;6.136;2023-02-01T09:14:19;101653.31;;;7.22;100.00
37202;BME280;37799;52.390;6.136;2023-02-01T09:16:44;101654.16;;;7.15;100.00
37202;BME280;37799;52.390;6.136;2023-02-01T09:19:09;101643.84;;;7.14;100.00
37202;BME280;37799;52.390;6.136;2023-02-01T09:21:35;101646.44;;;7.20;100.00
37202;BME280;37799;52.390;6.136;2023-02-01T09:24:00;101643.88;;;7.06;100.00
37202;BME280;37799;52.390;6.136;2023-02-01T09:26:26;101646.44;;;7.14;100.00
37202;BME280;37799;52.390;6.136;2023-02-01T09:28:52;101627.53;;;7.02;100.00
37202;BME280;37799;52.390;6.136;2023-02-01T09:31:17;101645.56;;;7.07;100.00
37202;BME280;37799;52.390;6.136;2023-02-01T09:33:43;101639.53;;;7.00;100.00
37202;BME280;37799;52.390;6.136;2023-02-01T09:36:08;101640.41;;;7.02;100.00
37202;BME280;37799;52.390;6.136;2023-02-01T09:38:33;101641.28;;;7.10;100.00
37202;BME280;37799;52.390;6.136;2023-02-01T09:40:59;101643.00;;;7.04;100.00
37202;BME280;37799;52.390;6.136;2023-02-01T09:43:42;101643.00;;;7.15;100.00
37202;BME280;37799;52.390;6.136;2023-02-01T09:46:32;101644.72;;;7.16;100.00
37202;BME280;37799;52.390;6.136;2023-02-01T09:49:05;101629.25;;;7.16;100.00
37202;BME280;37799;52.390;6.136;2023-02-01T09:51:37;101614.69;;;7.18;100.00
37202;BME280;37799;52.390;6.136;2023-02-01T09:54:09;101618.94;;;7.16;100.00
37202;BME280;37799;52.390;6.136;2023-02-01T09:56:41;101624.13;;;7.17;100.00
37202;BME280;37799;52.390;6.136;2023-02-01T09:59:18;101630.13;;;7.05;100.00
37202;BME280;37799;52.390;6.136;2023-02-01T10:01:48;101636.13;;;7.04;100.00
37202;BME280;37799;52.390;6.136;2023-02-01T10:04:14;101622.38;;;6.90;100.00
37202;BME280;37799;52.390;6.136;2023-02-01T10:07:06;101614.63;;;6.79;100.00
37202;BME280;37799;52.390;6.136;2023-02-01T10:18:48;101628.13;;;6.17;100.00
37202;BME280;37799;52.390;6.136;2023-02-01T10:21:00;101601.63;;;6.35;100.00
37202;BME280;37799;52.390;6.136;2023-02-01T10:26:23;101600.75;;;6.26;100.00
37202;BME280;37799;52.390;6.136;2023-02-01T10:29:16;101610.16;;;6.19;100.00
37202;BME280;37799;52.390;6.136;2023-02-01T10:31:43;101637.56;;;6.17;100.00
37202;BME280;37799;52.390;6.136;2023-02-01T10:34:15;101629.00;;;6.24;100.00
37202;BME280;37799;52.390;6.136;2023-02-01T10:36:53;101622.09;;;6.09;100.00
37202;BME280;37799;52.390;6.136;2023-02-01T10:39:20;101623.78;;;6.06;100.00
37202;BME280;37799;52.390;6.136;2023-02-01T10:41:46;101616.88;;;5.93;100.00
37202;BME280;37799;52.390;6.136;2023-02-01T10:44:15;101643.50;;;6.01;100.00
37202;BME280;37799;52.390;6.136;2023-02-01T10:46:41;101636.47;;;5.84;100.00
37202;BME280;37799;52.390;6.136;2023-02-01T10:49:18;101640.81;;;5.87;100.00
37202;BME280;37799;52.390;6.136;2023-02-01T10:52:05;101625.31;;;5.79;100.00
37202;BME280;37799;52.390;6.136;2023-02-01T10:54:37;101624.47;;;5.79;100.00
37202;BME280;37799;52.390;6.136;2023-02-01T10:57:08;101630.47;;;5.79;100.00
37202;BME280;37799;52.390;6.136;2023-02-01T10:59:34;101621.09;;;5.86;100.00
37202;BME280;37799;52.390;6.136;2023-02-01T11:02:13;101608.28;;;5.90;100.00
37202;BME280;37799;52.390;6.136;2023-02-01T11:04:41;101605.72;;;5.94;100.00
37202;BME280;37799;52.390;6.136;2023-02-01T11:07:23;101603.97;;;5.89;100.00
37202;BME280;37799;52.390;6.136;2023-02-01T11:09:51;101598.88;;;5.91;100.00
37202;BME280;37799;52.390;6.136;2023-02-01T11:12:27;101599.72;;;5.95;100.00
37202;BME280;37799;52.390;6.136;2023-02-01T11:14:59;101589.53;;;6.10;100.00
37202;BME280;37799;52.390;6.136;2023-02-01T11:17:29;101587.00;;;6.24;100.00
37202;BME280;37799;52.390;6.136;2023-02-01T11:20:04;101580.13;;;6.19;100.00
37202;BME280;37799;52.390;6.136;2023-02-01T11:22:30;101581.00;;;6.18;100.00
37202;BME280;37799;52.390;6.136;2023-02-01T11:24:56;101581.00;;;6.20;100.00
37202;BME280;37799;52.390;6.136;2023-02-01T11:27:25;101573.31;;;6.26;100.00
37202;BME280;37799;52.390;6.136;2023-02-01T11:29:53;101584.44;;;6.22;100.00
37202;BME280;37799;52.390;6.136;2023-02-01T11:32:22;101569.91;;;6.32;100.00
37202;BME280;37799;52.390;6.136;2023-02-01T11:34:52;101578.47;;;6.29;100.00
37202;BME280;37799;52.390;6.136;2023-02-01T11:39:54;101567.31;;;6.36;100.00
37202;BME280;37799;52.390;6.136;2023-02-01T11:42:20;101574.22;;;6.45;100.00
37202;BME280;37799;52.390;6.136;2023-02-01T11:44:47;101561.38;;;6.46;100.00
37202;BME280;37799;52.390;6.136;2023-02-01T11:47:19;101554.50;;;6.48;100.00
37202;BME280;37799;52.390;6.136;2023-02-01T11:49:47;101560.53;;;6.63;100.00
37202;BME280;37799;52.390;6.136;2023-02-01T11:58:06;101564.00;;;6.86;100.00
37202;BME280;37799;52.390;6.136;2023-02-01T12:09:21;101550.28;;;7.05;100.00
37202;BME280;37799;52.390;6.136;2023-02-01T12:12:31;101560.59;;;7.10;100.00
37202;BME280;37799;52.390;6.136;2023-02-01T12:21:04;101558.84;;;7.14;100.00
37202;BME280;37799;52.390;6.136;2023-02-01T12:24:06;101556.28;;;7.20;100.00
37202;BME280;37799;52.390;6.136;2023-02-01T12:43:33;101560.53;;;7.50;100.00
37202;BME280;37799;52.390;6.136;2023-02-01T12:45:56;101546.00;;;7.30;100.00
37202;BME280;37799;52.390;6.136;2023-02-01T12:51:19;101547.69;;;7.33;100.00
37202;BME280;37799;52.390;6.136;2023-02-01T12:53:57;101555.41;;;7.44;100.00
37202;BME280;37799;52.390;6.136;2023-02-01T12:56:33;101556.25;;;7.49;100.00
37202;BME280;37799;52.390;6.136;2023-02-01T12:59:03;101559.69;;;7.55;100.00
37202;BME280;37799;52.390;6.136;2023-02-01T13:01:37;101563.13;;;7.51;100.00
37202;BME280;37799;52.390;6.136;2023-02-01T13:07:15;101539.06;;;7.54;100.00
37202;BME280;37799;52.390;6.136;2023-02-01T13:12:43;101546.84;;;7.43;100.00
37202;BME280;37799;52.390;6.136;2023-02-01T13:15:16;101539.94;;;7.48;100.00
37202;BME280;37799;52.390;6.136;2023-02-01T13:17:43;101550.25;;;7.27;100.00
37202;BME280;37799;52.390;6.136;2023-02-01T13:20:30;101546.81;;;7.37;100.00
37202;BME280;37799;52.390;6.136;2023-02-01T13:23:04;101545.94;;;7.52;100.00
37202;BME280;37799;52.390;6.136;2023-02-01T13:25:45;101558.00;;;7.36;100.00
37202;BME280;37799;52.390;6.136;2023-02-01T13:28:17;101552.88;;;7.30;100.00
37202;BME280;37799;52.390;6.136;2023-02-01T13:34:23;101567.47;;;7.19;100.00
37202;BME280;37799;52.390;6.136;2023-02-01T13:37:32;101570.88;;;7.28;100.00
37202;BME280;37799;52.390;6.136;2023-02-01T13:40:40;101569.16;;;7.26;100.00
37202;BME280;37799;52.390;6.136;2023-02-01T13:43:12;101564.88;;;7.25;100.00
37202;BME280;37799;52.390;6.136;2023-02-01T13:45:49;101565.72;;;7.48;100.00
37202;BME280;37799;52.390;6.136;2023-02-01T13:48:29;101567.44;;;7.25;100.00
37202;BME280;37799;52.390;6.136;2023-02-01T13:50:59;101561.44;;;7.36;100.00
37202;BME280;37799;52.390;6.136;2023-02-01T13:53:29;101548.56;;;7.23;100.00
37202;BME280;37799;52.390;6.136;2023-02-01T13:55:59;101564.88;;;7.26;100.00
37202;BME280;37799;52.390;6.136;2023-02-01T13:58:37;101581.19;;;7.30;100.00
37202;BME280;37799;52.390;6.136;2023-02-01T14:04:05;101571.72;;;7.29;100.00
37202;BME280;37799;52.390;6.136;2023-02-01T14:09:30;101576.03;;;7.27;100.00
37202;BME280;37799;52.390;6.136;2023-02-01T14:11:57;101582.91;;;7.34;100.00
37202;BME280;37799;52.390;6.136;2023-02-01T14:19:23;101582.91;;;7.55;100.00
37202;BME280;37799;52.390;6.136;2023-02-01T14:24:56;101588.81;;;7.88;100.00
37202;BME280;37799;52.390;6.136;2023-02-01T14:27:35;101596.56;;;7.89;100.00
37202;BME280;37799;52.390;6.136;2023-02-01T14:30:05;101605.09;;;8.08;100.00
37202;BME280;37799;52.390;6.136;2023-02-01T14:32:39;101596.47;;;8.12;100.00
37202;BME280;37799;52.390;6.136;2023-02-01T14:35:16;101588.78;;;8.08;100.00